createdAt,value
2022-12-21T00:00:50.255Z,6
2022-12-21T00:07:00.879Z,6
2022-12-21T00:13:11.563Z,6
2022-12-21T00:19:22.246Z,6
2022-12-21T00:25:32.869Z,7
2022-12-21T00:31:35.514Z,8
2022-12-21T00:37:46.051Z,8
2022-12-21T00:43:56.681Z,8
2022-12-21T00:50:07.368Z,7
2022-12-21T00:56:18.060Z,5
2022-12-21T01:02:28.884Z,6
2022-12-21T01:08:39.441Z,8
2022-12-21T01:14:50.033Z,6
2022-12-21T01:21:00.691Z,5
2022-12-21T01:27:11.389Z,7
2022-12-21T01:33:22.066Z,7
2022-12-21T01:40:38.653Z,9
2022-12-21T01:46:49.352Z,6
2022-12-21T01:53:00.018Z,6
2022-12-21T01:59:10.632Z,6
2022-12-21T02:05:21.288Z,7
2022-12-21T02:11:31.971Z,5
2022-12-21T02:17:42.629Z,6
2022-12-21T02:23:53.286Z,5
2022-12-21T02:30:03.991Z,5
2022-12-21T02:36:14.631Z,7
2022-12-21T02:42:25.305Z,8
2022-12-21T02:48:35.993Z,6
2022-12-21T02:54:38.426Z,7
2022-12-21T02:59:51.350Z,8
2022-12-21T03:06:02.090Z,6
2022-12-21T03:12:12.696Z,7
2022-12-21T03:18:23.355Z,6
2022-12-21T03:24:34.030Z,5
2022-12-21T03:30:44.677Z,6
2022-12-21T03:36:55.347Z,5
2022-12-21T03:43:06.013Z,7
2022-12-21T03:49:16.679Z,8
2022-12-21T03:55:27.327Z,6
2022-12-21T04:01:38.225Z,5
2022-12-21T04:07:40.506Z,6
2022-12-21T04:13:51.154Z,7
2022-12-21T04:20:01.850Z,6
2022-12-21T04:26:12.655Z,7
2022-12-21T04:32:23.271Z,8
2022-12-21T04:38:33.832Z,4
2022-12-21T04:44:44.480Z,6
2022-12-21T04:50:55.145Z,6
2022-12-21T04:57:05.808Z,6
2022-12-21T05:03:16.588Z,5
2022-12-21T05:15:29.624Z,8
2022-12-21T05:21:40.285Z,7
2022-12-21T05:27:51.122Z,7
2022-12-21T05:33:03.879Z,9
2022-12-21T05:39:14.550Z,5
2022-12-21T05:45:25.181Z,5
2022-12-21T05:50:29.945Z,5
2022-12-21T05:56:40.598Z,7
2022-12-21T06:02:51.336Z,6
2022-12-21T06:09:01.954Z,11
2022-12-21T06:15:12.624Z,4
2022-12-21T06:21:23.236Z,5
2022-12-21T06:27:33.949Z,5
2022-12-21T06:33:36.415Z,4
2022-12-21T06:39:47.054Z,7
2022-12-21T06:45:57.883Z,6
2022-12-21T06:52:08.387Z,5
2022-12-21T06:58:19.055Z,5
2022-12-21T07:04:29.775Z,6
2022-12-21T07:10:42.747Z,5
2022-12-21T07:16:51.055Z,8
2022-12-21T07:23:01.760Z,6
2022-12-21T07:29:12.454Z,9
2022-12-21T07:35:23.028Z,5
2022-12-21T07:41:25.562Z,5
2022-12-21T07:47:36.181Z,5
2022-12-21T07:53:46.857Z,6
2022-12-21T07:58:59.779Z,6
2022-12-21T08:05:10.449Z,7
2022-12-21T08:11:21.127Z,6
2022-12-21T08:17:31.798Z,8
2022-12-21T08:23:42.436Z,6
2022-12-21T08:29:53.088Z,6
2022-12-21T08:36:03.807Z,4
2022-12-21T08:42:14.420Z,8
2022-12-21T08:48:29.727Z,6
2022-12-21T08:54:27.639Z,6
2022-12-21T09:00:38.298Z,7
2022-12-21T09:06:48.918Z,7
2022-12-21T09:12:59.573Z,6
2022-12-21T09:19:10.254Z,6
2022-12-21T09:25:20.918Z,6
2022-12-21T09:31:31.650Z,5
2022-12-21T09:37:42.214Z,4
2022-12-21T09:43:52.884Z,7
2022-12-21T09:50:03.592Z,7
2022-12-21T09:56:14.325Z,4
2022-12-21T10:01:19.003Z,6
2022-12-21T10:07:29.657Z,6
2022-12-21T10:13:32.114Z,5
2022-12-21T10:19:49.239Z,7
2022-12-21T10:25:53.463Z,6
2022-12-21T10:31:06.390Z,4
2022-12-21T10:37:17.028Z,8
2022-12-21T10:43:27.776Z,8
2022-12-21T10:50:52.493Z,7
2022-12-21T10:58:17.275Z,10
2022-12-21T11:04:28.002Z,5
2022-12-21T11:10:55.082Z,5
2022-12-21T11:16:41.207Z,6
2022-12-21T11:22:59.746Z,8
2022-12-21T11:29:02.401Z,7
2022-12-21T11:35:13.072Z,7
2022-12-21T11:41:23.765Z,6
2022-12-21T11:47:34.458Z,7
2022-12-21T11:53:45.071Z,6
2022-12-21T12:00:01.513Z,6
2022-12-21T12:06:06.416Z,6
2022-12-21T12:13:23.063Z,6
2022-12-21T12:19:34.441Z,6
2022-12-21T12:25:45.587Z,6
2022-12-21T12:31:55.128Z,6
2022-12-21T12:38:05.742Z,6
2022-12-21T12:44:16.350Z,5
2022-12-21T12:50:27.013Z,7
2022-12-21T12:56:37.739Z,5
2022-12-21T13:01:56.292Z,6
2022-12-21T13:08:01.303Z,8
2022-12-21T13:14:03.749Z,6
2022-12-21T13:20:14.399Z,7
2022-12-21T13:26:25.080Z,9
2022-12-21T13:32:38.023Z,10
2022-12-21T13:38:46.404Z,7
2022-12-21T13:44:57.061Z,6
2022-12-21T13:51:07.775Z,5
2022-12-21T13:57:18.417Z,6
2022-12-21T14:03:29.174Z,5
2022-12-21T14:08:33.798Z,7
2022-12-21T14:14:36.245Z,4
2022-12-21T14:20:46.923Z,5
2022-12-21T14:26:57.826Z,6
2022-12-21T14:33:08.302Z,8
2022-12-21T14:39:18.925Z,8
2022-12-21T14:45:29.826Z,7
2022-12-21T14:51:40.250Z,8
2022-12-21T14:59:05.060Z,8
2022-12-21T15:05:15.763Z,11
2022-12-21T15:11:26.401Z,6
2022-12-21T15:17:28.844Z,12
2022-12-21T15:23:39.568Z,14
2022-12-21T15:28:52.435Z,13
2022-12-21T15:35:03.105Z,18
2022-12-21T15:41:13.905Z,9
2022-12-21T15:47:24.428Z,12
2022-12-21T15:53:35.119Z,11
2022-12-21T15:59:45.820Z,14
2022-12-21T16:05:56.633Z,9
2022-12-21T16:12:23.934Z,17
2022-12-21T16:19:40.162Z,10
2022-12-21T16:28:19.039Z,10
2022-12-21T16:34:29.715Z,10
2022-12-21T16:40:40.406Z,10
2022-12-21T16:50:33.424Z,10
2022-12-21T16:55:38.188Z,10
2022-12-21T17:03:03.140Z,10
2022-12-21T17:10:28.038Z,10
2022-12-21T17:17:52.564Z,10
2022-12-21T17:25:17.373Z,10
2022-12-21T17:32:50.350Z,21
2022-12-21T17:40:15.147Z,21
2022-12-21T17:46:09.672Z,21
2022-12-21T17:53:34.289Z,21
2022-12-21T17:58:55.313Z,26
2022-12-21T18:05:06.034Z,33
2022-12-21T18:11:16.673Z,39
2022-12-21T18:17:27.329Z,33
2022-12-21T18:23:38.096Z,35
2022-12-21T18:29:48.680Z,48
2022-12-21T18:35:59.336Z,35
2022-12-21T18:42:10.047Z,28
2022-12-21T18:48:20.677Z,40
2022-12-21T18:54:31.316Z,37
2022-12-21T19:00:33.869Z,31
2022-12-21T19:06:44.471Z,23
2022-12-21T19:11:49.229Z,32
2022-12-21T19:17:59.894Z,41
2022-12-21T19:24:10.520Z,42
2022-12-21T19:30:21.233Z,37
2022-12-21T19:36:31.865Z,39
2022-12-21T19:42:42.525Z,41
2022-12-21T19:48:53.172Z,52
2022-12-21T19:55:03.876Z,25
2022-12-21T20:01:06.481Z,27
2022-12-21T20:07:17.021Z,26
2022-12-21T20:13:27.697Z,39
2022-12-21T20:19:38.350Z,37
2022-12-21T20:25:49.009Z,23
2022-12-21T20:31:02.026Z,26
2022-12-21T20:37:12.620Z,18
2022-12-21T20:43:23.225Z,26
2022-12-21T20:49:33.962Z,38
2022-12-21T20:55:44.577Z,29
2022-12-21T21:01:47.160Z,20
2022-12-21T21:07:57.750Z,22
2022-12-21T21:14:08.389Z,25
2022-12-21T21:20:19.055Z,24
2022-12-21T21:26:29.740Z,32
2022-12-21T21:32:40.385Z,48
2022-12-21T21:38:51.024Z,25
2022-12-21T21:45:01.737Z,27
2022-12-21T21:51:12.373Z,35
2022-12-21T21:58:29.003Z,16
2022-12-21T22:04:39.673Z,16
2022-12-21T22:10:50.319Z,13
2022-12-21T22:17:16.387Z,24
2022-12-21T22:23:11.661Z,16
2022-12-21T22:29:22.295Z,19
2022-12-21T22:35:34.624Z,14
2022-12-21T22:41:43.693Z,18
2022-12-21T22:47:54.353Z,18
2022-12-21T22:54:04.977Z,15
2022-12-21T23:00:15.639Z,18
2022-12-21T23:06:26.288Z,17
2022-12-21T23:12:28.805Z,18
2022-12-21T23:17:33.652Z,21
2022-12-21T23:23:44.155Z,13
2022-12-21T23:29:54.835Z,25
2022-12-21T23:36:05.537Z,13
2022-12-21T23:42:16.164Z,17
2022-12-21T23:48:32.490Z,21
2022-12-21T23:54:37.553Z,8
